createdAt,value
2022-09-26T00:03:32.906Z,12.80
2022-09-26T00:08:36.422Z,12.70
2022-09-26T00:13:40.286Z,12.70
2022-09-26T00:18:42.011Z,12.60
2022-09-26T00:23:44.053Z,12.50
2022-09-26T00:28:46.071Z,12.40
2022-09-26T00:33:47.787Z,12.50
2022-09-26T00:38:49.569Z,12.40
2022-09-26T00:43:53.924Z,12.40
2022-09-26T00:49:23.608Z,12.40
2022-09-26T00:54:28.310Z,12.40
2022-09-26T00:59:35.640Z,12.40
2022-09-26T01:04:39.883Z,12.40
2022-09-26T01:09:42.732Z,12.30
2022-09-26T01:14:46.410Z,12.30
2022-09-26T01:20:05.330Z,12.30
2022-09-26T01:25:24.097Z,12.20
2022-09-26T01:30:28.655Z,12.30
2022-09-26T01:35:55.431Z,12.30
2022-09-26T01:41:33.989Z,12.30
2022-09-26T01:46:54.399Z,12.30
2022-09-26T01:52:08.433Z,12.20
2022-09-26T01:57:17.515Z,12.20
2022-09-26T02:02:27.327Z,12.30
2022-09-26T02:07:38.832Z,12.40
2022-09-26T02:12:45.385Z,12.30
2022-09-26T02:17:58.085Z,12.40
2022-09-26T02:23:03.872Z,12.40
2022-09-26T02:28:05.844Z,12.50
2022-09-26T02:33:07.912Z,12.50
2022-09-26T02:38:09.889Z,12.40
2022-09-26T02:43:39.005Z,12.40
2022-09-26T02:49:12.985Z,12.40
2022-09-26T02:54:21.317Z,12.40
2022-09-26T02:59:37.733Z,12.40
2022-09-26T03:04:52.183Z,12.30
2022-09-26T03:09:57.998Z,12.40
2022-09-26T03:15:04.580Z,12.50
2022-09-26T03:20:19.641Z,12.40
2022-09-26T03:25:25.280Z,12.40
2022-09-26T03:30:35.881Z,12.40
2022-09-26T03:36:06.512Z,12.30
2022-09-26T03:41:09.669Z,12.40
2022-09-26T03:46:29.240Z,12.30
2022-09-26T03:51:31.011Z,12.20
2022-09-26T03:56:33.117Z,12.20
2022-09-26T04:01:35.363Z,12.30
2022-09-26T04:06:38.073Z,12.30
2022-09-26T04:11:39.837Z,12.30
2022-09-26T04:16:42.329Z,12.30
2022-09-26T04:21:52.234Z,12.30
2022-09-26T04:26:55.442Z,12.30
2022-09-26T04:31:57.221Z,12.20
2022-09-26T04:37:06.634Z,12.00
2022-09-26T04:42:08.503Z,11.90
2022-09-26T04:47:11.318Z,11.80
2022-09-26T04:52:36.007Z,11.80
2022-09-26T04:57:38.045Z,11.80
2022-09-26T05:02:41.042Z,11.70
2022-09-26T05:07:44.021Z,11.70
2022-09-26T05:12:46.428Z,11.60
2022-09-26T05:17:55.191Z,11.50
2022-09-26T05:23:04.802Z,11.50
2022-09-26T05:28:07.406Z,11.30
2022-09-26T05:33:09.803Z,11.30
2022-09-26T05:38:11.558Z,11.30
2022-09-26T05:43:16.640Z,11.30
2022-09-26T05:48:19.243Z,11.30
2022-09-26T05:53:21.190Z,11.30
2022-09-26T05:58:33.216Z,11.30
2022-09-26T06:03:57.874Z,11.40
2022-09-26T06:09:03.842Z,11.30
2022-09-26T06:14:26.486Z,11.40
2022-09-26T06:19:28.769Z,11.40
2022-09-26T06:24:30.523Z,11.50
2022-09-26T06:29:34.967Z,11.50
2022-09-26T06:34:37.053Z,11.50
2022-09-26T06:40:00.756Z,11.60
2022-09-26T06:45:02.570Z,11.70
2022-09-26T06:50:22.473Z,11.90
2022-09-26T06:55:28.097Z,12.00
2022-09-26T07:00:30.089Z,12.20
2022-09-26T07:05:40.951Z,12.30
2022-09-26T07:10:42.829Z,12.40
2022-09-26T07:15:50.861Z,12.50
2022-09-26T07:21:06.822Z,12.50
2022-09-26T07:26:33.391Z,12.60
2022-09-26T07:31:35.213Z,12.70
2022-09-26T07:36:57.666Z,13.00
2022-09-26T07:42:03.194Z,13.10
2022-09-26T07:47:23.578Z,13.20
2022-09-26T07:52:28.628Z,13.20
2022-09-26T07:57:53.596Z,13.40
2022-09-26T08:03:07.253Z,13.60
2022-09-26T08:08:13.351Z,13.70
2022-09-26T08:13:33.462Z,14.00
2022-09-26T08:19:01.667Z,14.20
2022-09-26T08:24:04.162Z,14.30
2022-09-26T08:29:38.292Z,14.60
2022-09-26T08:34:40.971Z,14.80
2022-09-26T08:40:12.399Z,14.70
2022-09-26T08:46:06.348Z,14.80
2022-09-26T08:51:32.112Z,15.10
2022-09-26T08:56:43.522Z,15.40
2022-09-26T09:01:47.537Z,15.50
2022-09-26T09:07:01.887Z,15.60
2022-09-26T09:12:32.154Z,15.60
2022-09-26T09:18:24.412Z,15.90
2022-09-26T09:23:54.820Z,16.20
2022-09-26T09:29:19.254Z,16.40
2022-09-26T09:34:42.434Z,16.70
2022-09-26T09:40:22.395Z,16.60
2022-09-26T09:45:42.062Z,16.70
2022-09-26T09:51:20.224Z,16.90
2022-09-26T09:57:08.918Z,16.50
2022-09-26T10:02:28.568Z,16.20
2022-09-26T10:07:32.304Z,16.20
2022-09-26T10:13:12.617Z,16.20
2022-09-26T10:19:03.441Z,16.30
2022-09-26T10:24:21.148Z,16.60
2022-09-26T10:29:35.042Z,17.20
2022-09-26T10:34:41.889Z,17.30
2022-09-26T10:40:11.288Z,17.40
2022-09-26T10:45:17.938Z,17.50
2022-09-26T10:50:51.796Z,17.50
2022-09-26T10:56:16.880Z,17.50
2022-09-26T11:01:27.853Z,17.50
2022-09-26T11:06:34.719Z,17.60
2022-09-26T11:11:50.531Z,17.50
2022-09-26T11:16:55.360Z,17.30
2022-09-26T11:22:10.095Z,17.20
2022-09-26T11:27:33.111Z,16.90
2022-09-26T11:32:43.090Z,17.10
2022-09-26T11:39:05.635Z,17.10
2022-09-26T11:44:25.282Z,17.30
2022-09-26T11:50:20.368Z,17.70
2022-09-26T11:55:53.222Z,17.90
2022-09-26T12:01:20.446Z,18.30
2022-09-26T12:06:46.755Z,18.20
2022-09-26T12:12:15.919Z,18.00
2022-09-26T12:17:18.782Z,18.00
2022-09-26T12:22:48.633Z,18.10
2022-09-26T12:28:00.062Z,18.20
2022-09-26T12:33:31.965Z,18.00
2022-09-26T12:39:05.085Z,18.30
2022-09-26T12:44:12.339Z,18.60
2022-09-26T12:49:14.076Z,18.40
2022-09-26T12:54:56.741Z,18.10
2022-09-26T13:00:18.575Z,17.80
2022-09-26T13:05:47.833Z,17.90
2022-09-26T13:10:58.980Z,18.00
2022-09-26T13:16:18.855Z,18.00
2022-09-26T13:21:27.032Z,17.90
2022-09-26T13:26:33.814Z,17.60
2022-09-26T13:31:40.367Z,17.70
2022-09-26T13:36:43.735Z,17.80
2022-09-26T13:41:53.360Z,17.80
2022-09-26T13:47:04.233Z,17.70
2022-09-26T13:52:26.714Z,17.80
2022-09-26T13:57:37.247Z,18.00
2022-09-26T14:02:42.631Z,18.40
2022-09-26T14:08:07.973Z,18.50
2022-09-26T14:13:38.850Z,18.20
2022-09-26T14:18:57.933Z,18.00
2022-09-26T14:24:25.210Z,18.70
2022-09-26T14:29:29.909Z,19.40
2022-09-26T14:34:57.248Z,19.40
2022-09-26T14:40:05.009Z,18.60
2022-09-26T14:45:18.705Z,18.50
2022-09-26T14:50:25.984Z,18.30
2022-09-26T14:55:30.481Z,18.00
2022-09-26T15:00:36.719Z,17.70
2022-09-26T15:05:41.402Z,17.50
2022-09-26T15:10:45.067Z,17.50
2022-09-26T15:16:08.091Z,17.40
2022-09-26T15:21:28.228Z,17.30
2022-09-26T15:26:37.399Z,17.20
2022-09-26T15:31:46.250Z,17.20
2022-09-26T15:37:00.368Z,17.30
2022-09-26T15:42:45.885Z,17.20
2022-09-26T15:47:47.701Z,17.10
2022-09-26T15:53:01.245Z,16.90
2022-09-26T15:58:06.861Z,16.80
2022-09-26T16:03:31.662Z,16.70
2022-09-26T16:08:40.588Z,16.60
2022-09-26T16:13:48.282Z,16.40
2022-09-26T16:19:26.635Z,16.20
2022-09-26T16:24:34.289Z,16.10
2022-09-26T16:29:36.194Z,15.80
2022-09-26T16:34:38.029Z,15.70
2022-09-26T16:39:39.804Z,15.60
2022-09-26T16:44:49.705Z,15.50
2022-09-26T16:49:51.531Z,15.40
2022-09-26T16:54:55.892Z,15.20
2022-09-26T17:00:51.355Z,15.10
2022-09-26T17:05:55.726Z,15.00
2022-09-26T17:11:04.294Z,14.90
2022-09-26T17:16:07.295Z,14.80
2022-09-26T17:21:09.170Z,14.70
2022-09-26T17:26:23.647Z,14.60
2022-09-26T17:31:26.929Z,14.50
2022-09-26T17:36:29.618Z,14.40
2022-09-26T17:41:34.358Z,14.30
2022-09-26T17:46:38.296Z,14.30
2022-09-26T17:51:42.187Z,14.20
2022-09-26T17:56:44.425Z,14.20
2022-09-26T18:01:48.413Z,14.10
2022-09-26T18:06:50.330Z,14.10
2022-09-26T18:12:02.417Z,14.00
2022-09-26T18:17:04.391Z,14.00
2022-09-26T18:22:09.892Z,14.00
2022-09-26T18:27:14.299Z,14.00
2022-09-26T18:32:31.643Z,14.00
2022-09-26T18:37:33.387Z,13.90
2022-09-26T18:42:35.435Z,13.90
2022-09-26T18:47:42.441Z,13.80
2022-09-26T18:52:44.222Z,13.80
2022-09-26T18:58:04.741Z,13.70
2022-09-26T19:03:06.565Z,13.70
2022-09-26T19:08:40.552Z,13.60
2022-09-26T19:13:50.810Z,13.60
2022-09-26T19:18:52.803Z,13.70
2022-09-26T19:23:54.963Z,13.70
2022-09-26T19:28:59.124Z,13.70
2022-09-26T19:34:02.814Z,13.70
2022-09-26T19:39:13.202Z,13.70
2022-09-26T19:44:15.359Z,13.70
2022-09-26T19:49:18.929Z,13.70
2022-09-26T19:54:20.823Z,13.60
2022-09-26T19:59:27.237Z,13.60
2022-09-26T20:04:29.805Z,13.60
2022-09-26T20:09:31.606Z,13.50
2022-09-26T20:14:33.466Z,13.60
2022-09-26T20:19:39.357Z,13.60
2022-09-26T20:24:43.217Z,13.50
2022-09-26T20:30:04.627Z,13.50
2022-09-26T20:35:07.375Z,13.40
2022-09-26T20:40:19.564Z,13.40
2022-09-26T20:45:30.574Z,13.40
2022-09-26T20:50:34.485Z,13.30
2022-09-26T20:55:39.585Z,13.30
2022-09-26T21:00:44.541Z,13.20
2022-09-26T21:05:46.973Z,13.20
2022-09-26T21:10:50.309Z,13.20
2022-09-26T21:15:52.840Z,13.20
2022-09-26T21:20:58.000Z,13.20
2022-09-26T21:26:22.226Z,13.20
2022-09-26T21:31:30.617Z,13.20
2022-09-26T21:36:37.478Z,13.20
2022-09-26T21:41:39.604Z,13.20
2022-09-26T21:46:41.408Z,13.10
2022-09-26T21:51:45.166Z,13.10
2022-09-26T21:56:52.071Z,13.10
2022-09-26T22:01:53.872Z,13.10
2022-09-26T22:06:55.610Z,13.00
2022-09-26T22:11:59.170Z,12.90
2022-09-26T22:17:01.190Z,12.90
2022-09-26T22:22:03.190Z,12.90
2022-09-26T22:27:05.173Z,12.90
2022-09-26T22:32:06.936Z,13.00
2022-09-26T22:37:08.685Z,13.00
2022-09-26T22:42:11.901Z,13.00
2022-09-26T22:47:13.627Z,13.00
2022-09-26T22:52:15.445Z,13.00
2022-09-26T22:57:17.460Z,13.10
2022-09-26T23:02:19.255Z,13.10
2022-09-26T23:07:21.158Z,13.00
2022-09-26T23:12:22.960Z,13.00
2022-09-26T23:17:25.005Z,12.90
2022-09-26T23:22:26.724Z,12.90
2022-09-26T23:27:28.517Z,12.90
2022-09-26T23:32:30.304Z,12.90
2022-09-26T23:37:32.820Z,12.90
2022-09-26T23:42:34.696Z,12.90
2022-09-26T23:47:36.486Z,12.80
2022-09-26T23:52:38.328Z,12.70
2022-09-26T23:57:40.048Z,12.70
